Terminal Aerodrome Forecast
Issued by NWS Buffalo, NY

Home | Current Version | Previous Version | Text Only | Print | Product List | Glossary On
Versions: 1 2 3 4 5 6 7 8 9 10 11 12 13 14 15 16 17 18 19 20 21 22 23 24 25
667
FTUS41 KBUF 240520
TAFROC
TAF
KROC 240520Z 2406/2506 23004KT P6SM SKC
     FM240900 23004KT 3SM BR SKC
     FM241300 24005KT P6SM SKC
     FM241500 30006KT P6SM SKC
     FM241800 35008KT P6SM SKC
     FM250100 23004KT P6SM SKC=

USA.gov is the U.S. government's official web portal to all federal, state and local government web resources and services.